createdAt,value
2019-05-05T00:01:06.998Z,1.20
2019-05-05T00:03:39.574Z,1.57
2019-05-05T00:06:11.741Z,1.80
2019-05-05T00:08:42.577Z,2.10
2019-05-05T00:11:24.534Z,1.87
2019-05-05T00:13:57.222Z,2.27
2019-05-05T00:16:36.892Z,1.83
2019-05-05T00:19:07.792Z,2.83
2019-05-05T00:21:38.666Z,1.90
2019-05-05T00:24:09.604Z,2.60
2019-05-05T00:26:40.447Z,1.67
2019-05-05T00:29:11.332Z,3.33
2019-05-05T00:31:42.314Z,2.80
2019-05-05T00:34:14.948Z,2.53
2019-05-05T00:36:47.263Z,1.73
2019-05-05T00:39:18.222Z,2.53
2019-05-05T00:41:48.998Z,1.67
2019-05-05T00:44:19.734Z,2.83
2019-05-05T00:46:55.088Z,1.57
2019-05-05T00:49:27.885Z,2.03
2019-05-05T00:52:00.352Z,1.17
2019-05-05T00:54:31.265Z,1.93
2019-05-05T00:57:04.450Z,3.23
2019-05-05T00:59:35.343Z,1.00
2019-05-05T01:02:16.912Z,3.37
2019-05-05T01:04:55.338Z,2.23
2019-05-05T01:07:26.260Z,2.43
2019-05-05T01:09:57.403Z,1.93
2019-05-05T01:12:28.475Z,1.70
2019-05-05T01:14:59.341Z,1.67
2019-05-05T01:17:30.420Z,2.80
2019-05-05T01:20:04.586Z,1.97
2019-05-05T01:22:34.228Z,2.13
2019-05-05T01:25:06.812Z,1.90
2019-05-05T01:27:37.779Z,2.23
2019-05-05T01:30:12.040Z,1.83
2019-05-05T01:32:50.671Z,2.47
2019-05-05T01:35:21.624Z,1.70
2019-05-05T01:37:54.815Z,1.57
2019-05-05T01:40:44.670Z,1.67
2019-05-05T01:43:16.187Z,2.60
2019-05-05T01:45:47.161Z,1.50
2019-05-05T01:48:18.124Z,2.33
2019-05-05T01:50:49.006Z,1.47
2019-05-05T01:53:20.873Z,2.87
2019-05-05T01:55:51.760Z,1.57
2019-05-05T01:58:24.426Z,4.37
2019-05-05T02:00:55.451Z,2.83
2019-05-05T02:03:26.308Z,2.50
2019-05-05T02:05:57.217Z,4.03
2019-05-05T02:08:28.080Z,3.80
2019-05-05T02:10:59.240Z,2.00
2019-05-05T02:13:30.222Z,1.93
2019-05-05T02:16:01.005Z,2.17
2019-05-05T02:18:31.956Z,2.33
2019-05-05T02:21:08.112Z,2.17
2019-05-05T02:23:38.845Z,4.90
2019-05-05T02:26:11.113Z,4.13
2019-05-05T02:28:45.329Z,2.40
2019-05-05T02:31:17.864Z,4.63
2019-05-05T02:33:48.706Z,3.10
2019-05-05T02:36:21.025Z,2.77
2019-05-05T02:38:51.921Z,5.83
2019-05-05T02:41:25.489Z,2.67
2019-05-05T02:43:56.806Z,3.50
2019-05-05T02:46:35.426Z,2.73
2019-05-05T02:49:05.638Z,5.70
2019-05-05T02:51:38.442Z,3.33
2019-05-05T02:54:09.477Z,3.00
2019-05-05T02:56:43.635Z,3.47
2019-05-05T02:59:17.770Z,3.47
2019-05-05T03:01:53.925Z,2.70
2019-05-05T03:04:25.448Z,3.37
2019-05-05T03:06:59.802Z,2.40
2019-05-05T03:09:31.917Z,4.73
2019-05-05T03:12:04.918Z,1.80
2019-05-05T03:14:39.457Z,2.40
2019-05-05T03:17:14.498Z,3.13
2019-05-05T03:19:45.474Z,2.10
2019-05-05T03:22:16.668Z,1.73
2019-05-05T03:24:47.941Z,4.17
2019-05-05T03:27:20.257Z,3.57
2019-05-05T03:29:53.394Z,4.17
2019-05-05T03:32:25.556Z,2.37
2019-05-05T03:34:57.750Z,3.40
2019-05-05T03:37:30.870Z,2.47
2019-05-05T03:40:04.261Z,4.20
2019-05-05T03:42:40.055Z,2.57
2019-05-05T03:45:14.532Z,2.60
2019-05-05T03:47:46.831Z,2.30
2019-05-05T03:50:17.940Z,2.20
2019-05-05T03:52:49.317Z,3.43
2019-05-05T03:55:20.367Z,3.37
2019-05-05T03:57:53.801Z,1.77
2019-05-05T04:00:33.979Z,3.87
2019-05-05T04:03:06.741Z,1.60
2019-05-05T04:05:39.502Z,2.27
2019-05-05T04:08:11.429Z,1.87
2019-05-05T04:10:43.926Z,2.80
2019-05-05T04:13:14.942Z,4.33
2019-05-05T04:15:47.407Z,3.87
2019-05-05T04:18:25.804Z,2.30
2019-05-05T04:20:56.821Z,3.10
2019-05-05T04:23:28.583Z,3.97
2019-05-05T04:25:59.661Z,2.10
2019-05-05T04:28:30.452Z,4.07
2019-05-05T04:31:04.215Z,3.47
2019-05-05T04:33:35.120Z,2.40
2019-05-05T04:36:05.970Z,2.17
2019-05-05T04:38:36.809Z,4.00
2019-05-05T04:41:08.636Z,1.83
2019-05-05T04:43:39.502Z,2.30
2019-05-05T04:46:11.381Z,2.37
2019-05-05T04:48:56.190Z,2.77
2019-05-05T04:51:44.789Z,4.57
2019-05-05T04:54:24.297Z,2.00
2019-05-05T04:56:55.073Z,3.33
2019-05-05T04:59:26.463Z,3.90
2019-05-05T05:02:00.825Z,6.60
2019-05-05T05:04:33.708Z,3.00
2019-05-05T05:07:05.255Z,3.00
2019-05-05T05:09:37.746Z,3.23
2019-05-05T05:12:09.168Z,3.20
2019-05-05T05:14:40.524Z,6.10
2019-05-05T05:17:14.101Z,3.83
2019-05-05T05:19:46.969Z,7.00
2019-05-05T05:22:18.245Z,3.97
2019-05-05T05:24:49.932Z,6.57
2019-05-05T05:27:21.375Z,3.80
2019-05-05T05:29:55.366Z,5.63
2019-05-05T05:32:26.716Z,4.50
2019-05-05T05:34:58.150Z,4.63
2019-05-05T05:37:29.615Z,3.93
2019-05-05T05:40:04.192Z,5.23
2019-05-05T05:42:36.206Z,6.13
2019-05-05T05:45:15.729Z,5.77
2019-05-05T05:47:53.707Z,7.17
2019-05-05T05:50:26.626Z,5.63
2019-05-05T05:52:59.823Z,4.40
2019-05-05T05:55:31.057Z,3.77
2019-05-05T05:58:04.607Z,7.73
2019-05-05T06:00:36.208Z,2.87
2019-05-05T06:03:09.289Z,3.83
2019-05-05T06:05:40.469Z,3.97
2019-05-05T06:08:13.926Z,4.20
2019-05-05T06:10:44.735Z,4.33
2019-05-05T06:13:16.304Z,3.40
2019-05-05T06:15:47.249Z,3.00
2019-05-05T06:18:18.139Z,3.63
2019-05-05T06:20:49.026Z,3.63
2019-05-05T06:23:19.858Z,3.87
2019-05-05T06:25:51.719Z,4.50
2019-05-05T06:28:23.688Z,4.23
2019-05-05T06:30:56.155Z,3.77
2019-05-05T06:33:27.024Z,4.63
2019-05-05T06:35:59.517Z,3.73
2019-05-05T06:38:30.400Z,2.53
2019-05-05T06:41:09.851Z,2.63
2019-05-05T06:43:48.390Z,4.73
2019-05-05T06:46:27.489Z,4.53
2019-05-05T06:48:59.338Z,2.93
2019-05-05T06:51:30.144Z,2.93
2019-05-05T06:54:01.009Z,7.37
2019-05-05T06:56:31.843Z,2.63
2019-05-05T06:59:04.312Z,3.00
2019-05-05T07:01:35.128Z,2.63
2019-05-05T07:04:05.912Z,3.83
2019-05-05T07:06:50.995Z,2.90
2019-05-05T07:09:10.834Z,2.90
2019-05-05T07:11:43.543Z,3.13
2019-05-05T07:14:14.691Z,2.70
2019-05-05T07:16:46.884Z,2.20
2019-05-05T07:19:17.759Z,2.20
2019-05-05T07:21:48.591Z,2.12
2019-05-05T07:24:19.594Z,5.25
2019-05-05T07:26:51.598Z,3.45
2019-05-05T07:29:23.887Z,4.05
2019-05-05T07:31:56.132Z,2.20
2019-05-05T07:34:28.775Z,2.08
2019-05-05T07:36:59.532Z,3.08
2019-05-05T07:39:30.408Z,2.10
2019-05-05T07:42:01.195Z,2.20
2019-05-05T07:44:33.908Z,2.02
2019-05-05T07:47:05.037Z,3.22
2019-05-05T07:49:36.038Z,1.47
2019-05-05T07:52:07.106Z,0.70
2019-05-05T07:54:38.260Z,3.02
2019-05-05T07:57:10.615Z,4.75
2019-05-05T07:59:41.470Z,1.37
2019-05-05T08:02:14.602Z,1.07
2019-05-05T08:04:45.733Z,1.87
2019-05-05T08:07:17.757Z,1.55
2019-05-05T08:09:48.594Z,1.90
2019-05-05T08:12:19.429Z,2.80
2019-05-05T08:14:50.236Z,4.35
2019-05-05T08:17:39.295Z,2.65
2019-05-05T08:20:14.175Z,1.77
2019-05-05T08:22:44.550Z,4.10
2019-05-05T08:25:39.851Z,4.15
2019-05-05T08:28:07.338Z,1.95
2019-05-05T08:30:45.455Z,1.92
2019-05-05T08:33:16.320Z,2.20
2019-05-05T08:35:47.227Z,1.00
2019-05-05T08:38:18.165Z,2.55
2019-05-05T08:40:49.158Z,2.77
2019-05-05T08:43:20.142Z,4.17
2019-05-05T08:45:52.444Z,2.35
2019-05-05T08:48:24.621Z,1.62
2019-05-05T08:50:55.821Z,5.53
2019-05-05T08:53:40.734Z,1.95
2019-05-05T08:56:00.717Z,0.75
2019-05-05T08:58:31.706Z,1.72
2019-05-05T09:01:04.376Z,2.22
2019-05-05T09:03:36.005Z,4.08
2019-05-05T09:06:08.180Z,1.37
2019-05-05T09:08:39.017Z,1.25
2019-05-05T09:11:09.877Z,4.78
2019-05-05T09:13:40.626Z,1.37
2019-05-05T09:16:14.439Z,2.58
2019-05-05T09:18:50.672Z,5.20
2019-05-05T09:21:21.513Z,2.08
2019-05-05T09:23:59.981Z,2.10
2019-05-05T09:26:37.456Z,2.98
2019-05-05T09:29:16.142Z,3.65
2019-05-05T09:31:47.079Z,1.40
2019-05-05T09:34:17.922Z,1.52
2019-05-05T09:36:48.852Z,2.83
2019-05-05T09:39:19.765Z,1.72
2019-05-05T09:41:53.472Z,1.82
2019-05-05T09:44:24.279Z,3.85
2019-05-05T09:46:55.735Z,1.57
2019-05-05T09:49:26.820Z,4.25
2019-05-05T09:52:00.130Z,2.98
2019-05-05T09:54:31.007Z,1.70
2019-05-05T09:57:04.136Z,2.72
2019-05-05T09:59:34.786Z,1.62
2019-05-05T10:02:05.717Z,2.65
2019-05-05T10:04:37.564Z,2.52
2019-05-05T10:07:08.397Z,1.62
2019-05-05T10:09:39.418Z,3.70
2019-05-05T10:12:11.791Z,1.55
2019-05-05T10:14:44.755Z,1.85
2019-05-05T10:17:15.224Z,1.62
2019-05-05T10:19:46.059Z,2.10
2019-05-05T10:22:18.131Z,2.77
2019-05-05T10:24:50.906Z,2.25
2019-05-05T10:27:22.478Z,0.85
2019-05-05T10:29:54.706Z,2.85
2019-05-05T10:32:26.535Z,3.33
2019-05-05T10:35:04.160Z,1.95
2019-05-05T10:37:37.058Z,2.12
2019-05-05T10:40:10.971Z,2.47
2019-05-05T10:42:50.101Z,2.17
2019-05-05T10:45:24.499Z,1.62
2019-05-05T10:47:55.696Z,3.90
2019-05-05T10:50:27.317Z,3.45
2019-05-05T10:52:58.780Z,2.15
2019-05-05T10:55:30.074Z,3.05
2019-05-05T10:58:01.288Z,2.87
2019-05-05T11:00:44.687Z,1.55
2019-05-05T11:03:16.139Z,1.72
2019-05-05T11:05:47.455Z,0.62
2019-05-05T11:08:19.041Z,3.33
2019-05-05T11:10:50.345Z,1.50
2019-05-05T11:13:23.805Z,2.95
2019-05-05T11:15:54.813Z,2.85
2019-05-05T11:18:26.215Z,1.15
2019-05-05T11:20:57.337Z,4.55
2019-05-05T11:23:29.576Z,3.90
2019-05-05T11:26:00.758Z,6.72
2019-05-05T11:28:33.759Z,7.50
2019-05-05T11:31:05.025Z,2.50
2019-05-05T11:33:54.203Z,1.70
2019-05-05T11:36:28.691Z,1.12
2019-05-05T11:38:59.783Z,1.90
2019-05-05T11:41:31.949Z,2.65
2019-05-05T11:44:05.653Z,1.77
2019-05-05T11:46:36.792Z,1.60
2019-05-05T11:49:08.251Z,3.92
2019-05-05T11:51:38.978Z,1.65
2019-05-05T11:54:11.381Z,3.83
2019-05-05T11:56:44.542Z,1.77
2019-05-05T11:59:15.036Z,4.90
2019-05-05T12:01:46.246Z,3.22
2019-05-05T12:04:17.610Z,4.70
2019-05-05T12:06:48.667Z,3.85
2019-05-05T12:09:21.196Z,4.05
2019-05-05T12:11:54.501Z,3.37
2019-05-05T12:14:29.717Z,2.15
2019-05-05T12:17:01.875Z,0.93
2019-05-05T12:19:33.643Z,4.40
2019-05-05T12:22:05.694Z,1.87
2019-05-05T12:24:38.578Z,2.35
2019-05-05T12:27:11.220Z,2.98
2019-05-05T12:29:44.183Z,3.15
2019-05-05T12:32:15.348Z,3.80
2019-05-05T12:34:46.556Z,2.05
2019-05-05T12:37:17.770Z,1.65
2019-05-05T12:39:48.932Z,0.75
2019-05-05T12:42:20.192Z,1.30
2019-05-05T12:44:56.086Z,2.52
2019-05-05T12:47:34.107Z,3.67
2019-05-05T12:50:05.129Z,3.83
2019-05-05T12:52:36.774Z,1.10
2019-05-05T12:55:09.111Z,0.93
2019-05-05T12:57:40.437Z,1.22
2019-05-05T13:00:14.628Z,2.90
2019-05-05T13:02:46.920Z,1.67
2019-05-05T13:05:19.750Z,6.03
2019-05-05T13:07:51.712Z,3.05
2019-05-05T13:10:24.340Z,1.72
2019-05-05T13:12:58.044Z,1.42
2019-05-05T13:15:31.103Z,1.30
2019-05-05T13:18:03.648Z,0.62
2019-05-05T13:20:36.772Z,1.75
2019-05-05T13:23:09.469Z,1.82
2019-05-05T13:25:55.215Z,2.87
2019-05-05T13:28:16.956Z,4.22
2019-05-05T13:30:48.459Z,1.85
2019-05-05T13:33:20.047Z,1.22
2019-05-05T13:35:53.782Z,2.87
2019-05-05T13:38:26.310Z,1.75
2019-05-05T13:40:57.169Z,1.65
2019-05-05T13:43:28.010Z,4.53
2019-05-05T13:46:01.815Z,0.65
2019-05-05T13:48:33.776Z,2.05
2019-05-05T13:51:15.723Z,4.30
2019-05-05T13:53:47.199Z,3.25
2019-05-05T13:56:24.459Z,1.87
2019-05-05T13:58:56.036Z,4.92
2019-05-05T14:01:27.390Z,1.35
2019-05-05T14:03:59.188Z,4.92
2019-05-05T14:06:33.403Z,3.10
2019-05-05T14:09:06.383Z,4.12
2019-05-05T14:11:39.074Z,2.33
2019-05-05T14:14:13.789Z,2.12
2019-05-05T14:16:44.941Z,1.55
2019-05-05T14:19:15.820Z,1.57
2019-05-05T14:21:46.713Z,3.52
2019-05-05T14:24:37.619Z,3.58
2019-05-05T14:27:08.592Z,1.17
2019-05-05T14:29:50.244Z,2.08
2019-05-05T14:32:23.996Z,3.72
2019-05-05T14:34:59.458Z,3.98
2019-05-05T14:37:33.953Z,1.95
2019-05-05T14:40:06.768Z,8.43
2019-05-05T14:42:37.711Z,2.37
2019-05-05T14:45:11.373Z,1.75
2019-05-05T14:47:44.014Z,3.05
2019-05-05T14:50:15.531Z,2.92
2019-05-05T14:52:46.924Z,7.80
2019-05-05T14:55:18.927Z,3.37
2019-05-05T14:57:49.815Z,3.20
2019-05-05T15:00:24.215Z,2.42
2019-05-05T15:02:55.207Z,1.37
2019-05-05T15:05:47.574Z,7.95
2019-05-05T15:08:38.800Z,5.12
2019-05-05T15:11:11.409Z,4.72
2019-05-05T15:13:43.735Z,4.72
2019-05-05T15:16:14.711Z,2.30
2019-05-05T15:18:45.552Z,9.35
2019-05-05T15:21:16.299Z,2.20
2019-05-05T15:23:47.189Z,2.77
2019-05-05T15:26:18.037Z,1.98
2019-05-05T15:29:01.319Z,1.00
2019-05-05T15:31:23.663Z,1.65
2019-05-05T15:33:55.372Z,2.45
2019-05-05T15:36:26.075Z,1.77
2019-05-05T15:38:57.004Z,3.58
2019-05-05T15:41:27.881Z,1.45
2019-05-05T15:43:59.806Z,1.25
2019-05-05T15:46:33.583Z,1.10
2019-05-05T15:49:04.466Z,2.47
2019-05-05T15:51:35.198Z,1.67
2019-05-05T15:54:11.447Z,0.88
2019-05-05T15:56:42.312Z,1.65
2019-05-05T15:59:14.316Z,1.45
2019-05-05T16:01:45.725Z,2.58
2019-05-05T16:04:17.882Z,1.12
2019-05-05T16:06:49.915Z,1.35
2019-05-05T16:09:20.894Z,2.40
2019-05-05T16:11:51.892Z,2.00
2019-05-05T16:14:23.851Z,1.85
2019-05-05T16:17:04.513Z,3.27
2019-05-05T16:19:36.434Z,1.52
2019-05-05T16:22:08.999Z,2.52
2019-05-05T16:24:44.638Z,3.40
2019-05-05T16:27:21.806Z,2.33
2019-05-05T16:29:48.282Z,2.08
2019-05-05T16:32:22.123Z,1.40
2019-05-05T16:34:53.289Z,2.33
2019-05-05T16:37:24.876Z,8.28
2019-05-05T16:39:56.453Z,2.35
2019-05-05T16:42:27.258Z,2.47
2019-05-05T16:45:00.550Z,1.90
2019-05-05T16:47:33.609Z,3.77
2019-05-05T16:50:08.624Z,1.92
2019-05-05T16:52:46.077Z,1.75
2019-05-05T16:55:31.346Z,0.68
2019-05-05T16:58:04.047Z,1.45
2019-05-05T17:00:35.561Z,3.12
2019-05-05T17:03:06.823Z,3.02
2019-05-05T17:05:38.857Z,2.85
2019-05-05T17:08:10.589Z,2.58
2019-05-05T17:10:43.542Z,1.98
2019-05-05T17:13:17.635Z,0.80
2019-05-05T17:16:04.058Z,2.25
2019-05-05T17:18:55.096Z,0.90
2019-05-05T17:21:34.246Z,1.32
2019-05-05T17:24:05.197Z,1.35
2019-05-05T17:26:36.449Z,0.60
2019-05-05T17:29:08.662Z,1.90
2019-05-05T17:31:41.206Z,1.17
2019-05-05T17:34:16.033Z,2.70
2019-05-05T17:36:48.144Z,1.95
2019-05-05T17:39:20.857Z,1.17
2019-05-05T17:41:56.926Z,1.30
2019-05-05T17:44:30.175Z,2.05
2019-05-05T17:47:04.461Z,0.88
2019-05-05T17:49:37.667Z,1.65
2019-05-05T17:52:11.308Z,1.40
2019-05-05T17:54:48.088Z,1.12
2019-05-05T17:57:20.543Z,1.32
2019-05-05T17:59:53.619Z,2.42
2019-05-05T18:02:25.963Z,2.87
2019-05-05T18:04:59.532Z,2.98
2019-05-05T18:07:37.234Z,1.77
2019-05-05T18:10:17.245Z,1.53
2019-05-05T18:12:57.406Z,1.00
2019-05-05T18:15:48.358Z,2.67
2019-05-05T18:18:21.153Z,1.43
2019-05-05T18:20:54.255Z,2.97
2019-05-05T18:23:26.032Z,2.33
2019-05-05T18:25:58.348Z,5.50
2019-05-05T18:28:31.585Z,2.87
2019-05-05T18:31:05.637Z,1.47
2019-05-05T18:33:37.266Z,2.80
2019-05-05T18:36:09.462Z,2.40
2019-05-05T18:38:45.752Z,2.20
2019-05-05T18:41:20.445Z,3.33
2019-05-05T18:43:55.321Z,3.13
2019-05-05T18:46:27.548Z,1.77
2019-05-05T18:49:01.264Z,3.23
2019-05-05T18:51:34.749Z,1.77
2019-05-05T18:54:07.633Z,1.93
2019-05-05T18:56:40.071Z,2.57
2019-05-05T18:59:13.835Z,2.93
2019-05-05T19:01:49.251Z,4.27
2019-05-05T19:04:26.432Z,4.50
2019-05-05T19:07:00.385Z,1.70
2019-05-05T19:09:36.021Z,1.53
2019-05-05T19:12:10.246Z,1.77
2019-05-05T19:14:41.549Z,2.43
2019-05-05T19:17:15.782Z,6.53
2019-05-05T19:19:51.409Z,3.60
2019-05-05T19:22:23.480Z,1.57
2019-05-05T19:24:54.895Z,2.20
2019-05-05T19:27:28.650Z,1.50
2019-05-05T19:30:00.654Z,1.40
2019-05-05T19:32:34.923Z,4.07
2019-05-05T19:35:06.992Z,5.03
2019-05-05T19:37:40.033Z,1.60
2019-05-05T19:40:14.017Z,1.10
2019-05-05T19:42:46.334Z,2.00
2019-05-05T19:45:20.891Z,1.63
2019-05-05T19:47:52.485Z,1.50
2019-05-05T19:50:33.770Z,1.77
2019-05-05T19:53:10.344Z,2.70
2019-05-05T19:55:45.723Z,1.87
2019-05-05T19:58:19.574Z,6.17
2019-05-05T20:01:04.399Z,5.60
2019-05-05T20:03:29.160Z,3.63
2019-05-05T20:06:01.920Z,1.40
2019-05-05T20:08:40.944Z,1.77
2019-05-05T20:11:10.207Z,3.33
2019-05-05T20:13:44.589Z,1.70
2019-05-05T20:16:28.168Z,1.73
2019-05-05T20:19:04.251Z,4.03
2019-05-05T20:21:35.555Z,4.70
2019-05-05T20:24:08.458Z,2.93
2019-05-05T20:26:41.241Z,2.77
2019-05-05T20:29:16.554Z,3.00
2019-05-05T20:31:47.788Z,5.07
2019-05-05T20:34:21.153Z,3.50
2019-05-05T20:36:58.291Z,8.30
2019-05-05T20:39:29.929Z,3.70
2019-05-05T20:42:04.120Z,3.07
2019-05-05T20:44:38.515Z,4.70
2019-05-05T20:47:11.606Z,2.67
2019-05-05T20:49:44.527Z,1.90
2019-05-05T20:52:20.703Z,2.50
2019-05-05T20:54:59.511Z,4.67
2019-05-05T20:57:34.461Z,4.33
2019-05-05T21:00:09.668Z,3.43
2019-05-05T21:02:44.779Z,4.83
2019-05-05T21:05:18.996Z,4.93
2019-05-05T21:07:51.659Z,4.03
2019-05-05T21:10:25.809Z,3.30
2019-05-05T21:13:04.854Z,7.87
2019-05-05T21:15:41.922Z,4.20
2019-05-05T21:18:14.940Z,6.10
2019-05-05T21:20:56.223Z,8.80
2019-05-05T21:23:38.194Z,4.67
2019-05-05T21:26:14.855Z,5.70
2019-05-05T21:28:49.923Z,4.70
2019-05-05T21:31:21.134Z,3.93
2019-05-05T21:33:54.776Z,6.00
2019-05-05T21:36:29.954Z,4.23
2019-05-05T21:39:04.094Z,12.50
2019-05-05T21:41:40.232Z,2.50
2019-05-05T21:44:16.740Z,6.50
2019-05-05T21:46:48.977Z,5.37
2019-05-05T21:49:24.339Z,8.20
2019-05-05T21:51:58.445Z,9.00
2019-05-05T21:54:41.183Z,6.07
2019-05-05T21:57:18.019Z,6.33
2019-05-05T21:59:55.397Z,4.33
2019-05-05T22:02:23.599Z,5.80
2019-05-05T22:05:07.467Z,6.67
2019-05-05T22:07:44.263Z,5.67
2019-05-05T22:10:24.447Z,4.90
2019-05-05T22:13:05.316Z,5.30
2019-05-05T22:15:43.566Z,8.37
2019-05-05T22:18:15.831Z,4.40
2019-05-05T22:20:54.530Z,4.80
2019-05-05T22:23:37.232Z,6.33
2019-05-05T22:26:16.417Z,10.70
2019-05-05T22:28:54.175Z,3.97
2019-05-05T22:31:39.697Z,10.63
2019-05-05T22:34:11.857Z,8.67
2019-05-05T22:36:47.693Z,13.77
2019-05-05T22:39:24.129Z,11.67
2019-05-05T22:41:58.962Z,9.27
2019-05-05T22:44:31.160Z,11.00
2019-05-05T22:47:05.262Z,11.47
2019-05-05T22:49:44.531Z,12.40
2019-05-05T22:52:18.987Z,13.10
2019-05-05T22:54:59.347Z,9.13
2019-05-05T22:57:35.355Z,12.60
2019-05-05T23:00:29.958Z,8.97
2019-05-05T23:03:17.074Z,11.13
2019-05-05T23:06:00.299Z,14.80
2019-05-05T23:08:35.543Z,8.43
2019-05-05T23:11:10.417Z,12.80
2019-05-05T23:13:49.847Z,9.40
2019-05-05T23:16:38.310Z,11.20
2019-05-05T23:19:15.178Z,7.83
2019-05-05T23:21:54.306Z,7.17
2019-05-05T23:24:38.169Z,11.43
2019-05-05T23:27:22.242Z,14.17
2019-05-05T23:30:02.455Z,7.00
2019-05-05T23:32:43.876Z,9.37
2019-05-05T23:35:20.465Z,10.13
2019-05-05T23:37:58.199Z,13.97
2019-05-05T23:40:37.892Z,12.30
2019-05-05T23:43:13.943Z,6.93
2019-05-05T23:45:47.794Z,12.03
2019-05-05T23:48:28.794Z,9.37
2019-05-05T23:50:59.906Z,8.13
2019-05-05T23:53:37.650Z,9.67
2019-05-05T23:56:19.742Z,15.00
2019-05-05T23:58:51.696Z,8.20
